^^
Saratoga-Weather Station Historical Data
Daily Summary for June 28, 2020 Units:  Both    English   Metric
Daily Weekly Monthly Yearly Custom
  High: Low: Average:
Temperature: 70.5 °F /  21.4 °C 55 °F /  12.8 °C 64.4 °F /  18 °C
Dew Point: 60.6 °F /  15.9 °C 49.5 °F /  9.7 °C 55.4 °F /  13 °C
Humidity: 93% 51% 74%
Wind Speed: 12.1mph /  19.5km/h - 2mph /  3.2km/h
Wind Gust: 16mph /  25.7km/h - -
Wind- - WSW
Pressure: 29.7 in /  1006.4 hPa 29.6 in /  1000.7 hPa -
Precipitation: 0.21 in /  5.3 mm    
Historical Graphs
 
 
Tabular Data for June 28, 2020
Time Temperature Dew Point Pressure Wind Wind Speed Wind Gust Humidity Rainfall Rate (Hourly) solar
00:02 69.4 °F /  20.8 °C 54.9 °F /  12.7 °C 29.7in /  1006.1hPa Calm   2mph /  3.2km/h 60% 0in /  0.0mm 0 W/m2
00:07 69.6 °F /  20.9 °C 54.7 °F /  12.6 °C 29.7in /  1005.8hPa SSW 0.9mph /  1.4km/h 5mph /  8km/h 59% 0in /  0.0mm 0 W/m2
00:12 69.6 °F /  20.9 °C 55 °F /  12.8 °C 29.7in /  1005.8hPa SSW 2mph /  3.2km/h 2mph /  3.2km/h 60% 0in /  0.0mm 0 W/m2
00:17 69.4 °F /  20.8 °C 55.9 °F /  13.3 °C 29.7in /  1005.8hPa Calm   4mph /  6.4km/h 62% 0in /  0.0mm 0 W/m2
00:22 69.1 °F /  20.6 °C 55.6 °F /  13.1 °C 29.7in /  1005.8hPa ENE 2mph /  3.2km/h 2mph /  3.2km/h 62% 0in /  0.0mm 0 W/m2
00:27 68.5 °F /  20.3 °C 55 °F /  12.8 °C 29.7in /  1005.8hPa Calm   3mph /  4.8km/h 62% 0in /  0.0mm 0 W/m2
00:32 68.4 °F /  20.2 °C 55.2 °F /  12.9 °C 29.7in /  1005.8hPa East 2.9mph /  4.7km/h 6mph /  9.7km/h 63% 0in /  0.0mm 0 W/m2
00:37 68.5 °F /  20.3 °C 55 °F /  12.8 °C 29.7in /  1005.8hPa Calm   1mph /  1.6km/h 62% 0in /  0.0mm 0 W/m2
00:43 68.5 °F /  20.3 °C 54.5 °F /  12.5 °C 29.7in /  1005.8hPa NE 2.9mph /  4.7km/h 4mph /  6.4km/h 61% 0in /  0.0mm 0 W/m2
00:48 68.7 °F /  20.4 °C 55.2 °F /  12.9 °C 29.7in /  1005.8hPa Calm     62% 0in /  0.0mm 0 W/m2
00:53 68.7 °F /  20.4 °C 56.5 °F /  13.6 °C 29.7in /  1005.8hPa NNW 0.9mph /  1.4km/h 4mph /  6.4km/h 65% 0in /  0.0mm 0 W/m2
00:58 68.4 °F /  20.2 °C 57.7 °F /  14.3 °C 29.7in /  1005.8hPa West 2.9mph /  4.7km/h 3mph /  4.8km/h 69% 0in /  0.0mm 0 W/m2
01:03 67.6 °F /  19.8 °C 56.7 °F /  13.7 °C 29.7in /  1006.1hPa West 4mph /  6.4km/h 9mph /  14.5km/h 68% 0in /  0.0mm 0 W/m2
01:08 67.6 °F /  19.8 °C 57 °F /  13.9 °C 29.7in /  1006.4hPa WNW 6.9mph /  11.1km/h 12mph /  19.3km/h 69% 0in /  0.0mm 0 W/m2
01:13 66.9 °F /  19.4 °C 57.2 °F /  14 °C 29.7in /  1006.4hPa West 6.9mph /  11.1km/h 12mph /  19.3km/h 71% 0in /  0.0mm 0 W/m2
01:18 66 °F /  18.9 °C 58.6 °F /  14.8 °C 29.7in /  1006.4hPa WNW 4.9mph /  7.9km/h 10mph /  16.1km/h 77% 0in /  0.0mm 0 W/m2
01:23 65.3 °F /  18.5 °C 59 °F /  15 °C 29.7in /  1006.1hPa WSW 4mph /  6.4km/h 13mph /  20.9km/h 80% 0in /  0.0mm 0 W/m2
01:28 64.8 °F /  18.2 °C 59.2 °F /  15.1 °C 29.7in /  1006.1hPa West 2.9mph /  4.7km/h 6mph /  9.7km/h 82% 0in /  0.0mm 0 W/m2
01:33 64.6 °F /  18.1 °C 59.4 °F /  15.2 °C 29.7in /  1006.1hPa SW 2mph /  3.2km/h 8mph /  12.9km/h 83% 0in /  0.0mm 0 W/m2
01:38 64.2 °F /  17.9 °C 59.4 °F /  15.2 °C 29.7in /  1006.1hPa West 4mph /  6.4km/h 7mph /  11.3km/h 84% 0in /  0.0mm 0 W/m2
01:43 64 °F /  17.8 °C 59.4 °F /  15.2 °C 29.7in /  1006.1hPa West 4mph /  6.4km/h 6mph /  9.7km/h 85% 0in /  0.0mm 0 W/m2
01:48 63.9 °F /  17.7 °C 59.5 °F /  15.3 °C 29.7in /  1005.8hPa West 2.9mph /  4.7km/h 4mph /  6.4km/h 86% 0in /  0.0mm 0 W/m2
01:53 63.9 °F /  17.7 °C 59.5 °F /  15.3 °C 29.7in /  1005.8hPa WNW 0.9mph /  1.4km/h 6mph /  9.7km/h 86% 0in /  0.0mm 0 W/m2
01:58 63.9 °F /  17.7 °C 59.5 °F /  15.3 °C 29.7in /  1005.8hPa West 0.9mph /  1.4km/h 3mph /  4.8km/h 86% 0in /  0.0mm 0 W/m2
02:03 63.9 °F /  17.7 °C 59.5 °F /  15.3 °C 29.7in /  1005.8hPa Calm   6mph /  9.7km/h 86% 0in /  0.0mm 0 W/m2
02:08 63.9 °F /  17.7 °C 59.9 °F /  15.5 °C 29.7in /  1005.8hPa North 0.9mph /  1.4km/h 1mph /  1.6km/h 87% 0.01in /  0.2mm 0 W/m2
02:13 63.9 °F /  17.7 °C 59.9 °F /  15.5 °C 29.7in /  1005.8hPa WNW 0.9mph /  1.4km/h 2mph /  3.2km/h 87% 0.01in /  0.2mm 0 W/m2
02:18 64 °F /  17.8 °C 60.1 °F /  15.6 °C 29.7in /  1005.4hPa West 2mph /  3.2km/h 4mph /  6.4km/h 87% 0.01in /  0.2mm 0 W/m2
02:23 64 °F /  17.8 °C 60.1 °F /  15.6 °C 29.7in /  1005.4hPa Calm   2mph /  3.2km/h 87% 0.02in /  0.5mm 0 W/m2
02:28 64 °F /  17.8 °C 60.1 °F /  15.6 °C 29.7in /  1005.4hPa North 2mph /  3.2km/h 3mph /  4.8km/h 87% 0.02in /  0.5mm 0 W/m2
02:33 64 °F /  17.8 °C 60.1 °F /  15.6 °C 29.7in /  1005.4hPa Calm   1mph /  1.6km/h 87% 0.02in /  0.5mm 0 W/m2
02:38 64 °F /  17.8 °C 60.1 °F /  15.6 °C 29.7in /  1005.4hPa West 2.9mph /  4.7km/h 6mph /  9.7km/h 87% 0.02in /  0.5mm 0 W/m2
02:43 64.2 °F /  17.9 °C 60.3 °F /  15.7 °C 29.7in /  1005.4hPa ENE 0.9mph /  1.4km/h 2mph /  3.2km/h 87% 0.02in /  0.5mm 0 W/m2
02:48 64.2 °F /  17.9 °C 60.3 °F /  15.7 °C 29.7in /  1005.4hPa NW 0.9mph /  1.4km/h 2mph /  3.2km/h 87% 0.02in /  0.5mm 0 W/m2
02:53 64.2 °F /  17.9 °C 60.3 °F /  15.7 °C 29.7in /  1005.8hPa North 0.9mph /  1.4km/h 3mph /  4.8km/h 87% 0.02in /  0.5mm 0 W/m2
02:58 64.2 °F /  17.9 °C 60.3 °F /  15.7 °C 29.7in /  1005.4hPa NNW 2.9mph /  4.7km/h 4mph /  6.4km/h 87% 0.02in /  0.5mm 0 W/m2
03:03 64.2 °F /  17.9 °C 60.3 °F /  15.7 °C 29.7in /  1005.4hPa WNW 0.9mph /  1.4km/h 4mph /  6.4km/h 87% 0.02in /  0.5mm 0 W/m2
03:08 64.2 °F /  17.9 °C 60.3 °F /  15.7 °C 29.7in /  1005.4hPa WSW 2mph /  3.2km/h 6mph /  9.7km/h 87% 0.01in /  0.2mm 0 W/m2
03:13 64.2 °F /  17.9 °C 60.3 °F /  15.7 °C 29.7in /  1005.4hPa NNW 2mph /  3.2km/h 2mph /  3.2km/h 87% 0.01in /  0.2mm 0 W/m2
03:18 64.2 °F /  17.9 °C 60.3 °F /  15.7 °C 29.7in /  1005.4hPa WSW 0.9mph /  1.4km/h 2mph /  3.2km/h 87% 0.01in /  0.2mm 0 W/m2
03:23 64.2 °F /  17.9 °C 60.3 °F /  15.7 °C 29.7in /  1005.8hPa NW 2.9mph /  4.7km/h 4mph /  6.4km/h 87% 0in /  0.0mm 0 W/m2
03:28 64.2 °F /  17.9 °C 60.6 °F /  15.9 °C 29.7in /  1005.8hPa West 4mph /  6.4km/h 4mph /  6.4km/h 88% 0in /  0.0mm 0 W/m2
03:33 64.2 °F /  17.9 °C 60.3 °F /  15.7 °C 29.7in /  1005.4hPa West 0.9mph /  1.4km/h 7mph /  11.3km/h 87% 0in /  0.0mm 0 W/m2
03:38 64.4 °F /  18 °C 60.4 °F /  15.8 °C 29.7in /  1005.8hPa WSW 2mph /  3.2km/h 3mph /  4.8km/h 87% 0in /  0.0mm 0 W/m2
03:43 64.2 °F /  17.9 °C 60.3 °F /  15.7 °C 29.7in /  1005.8hPa WNW 2.9mph /  4.7km/h 6mph /  9.7km/h 87% 0in /  0.0mm 0 W/m2
03:48 64.2 °F /  17.9 °C 60.3 °F /  15.7 °C 29.7in /  1005.8hPa West 4mph /  6.4km/h 5mph /  8km/h 87% 0in /  0.0mm 0 W/m2
03:53 64.4 °F /  18 °C 60.4 °F /  15.8 °C 29.7in /  1005.8hPa NW 0.9mph /  1.4km/h 3mph /  4.8km/h 87% 0in /  0.0mm 0 W/m2
03:58 64.2 °F /  17.9 °C 60.3 °F /  15.7 °C 29.7in /  1005.4hPa WSW 2mph /  3.2km/h 6mph /  9.7km/h 87% 0in /  0.0mm 0 W/m2
04:03 64.2 °F /  17.9 °C 60.3 °F /  15.7 °C 29.7in /  1005.8hPa WNW 0.9mph /  1.4km/h 2mph /  3.2km/h 87% 0in /  0.0mm 0 W/m2
04:08 64 °F /  17.8 °C 60.1 °F /  15.6 °C 29.7in /  1005.4hPa Calm   6mph /  9.7km/h 87% 0in /  0.0mm 0 W/m2
04:13 64 °F /  17.8 °C 60.1 °F /  15.6 °C 29.7in /  1005.4hPa ENE 0.9mph /  1.4km/h 1mph /  1.6km/h 87% 0in /  0.0mm 0 W/m2
04:18 63.7 °F /  17.6 °C 59.7 °F /  15.4 °C 29.7in /  1005.4hPa ENE 2mph /  3.2km/h 3mph /  4.8km/h 87% 0in /  0.0mm 0 W/m2
04:23 63.3 °F /  17.4 °C 59.7 °F /  15.4 °C 29.7in /  1005.4hPa Calm   1mph /  1.6km/h 88% 0in /  0.0mm 0 W/m2
04:28 63.1 °F /  17.3 °C 59.5 °F /  15.3 °C 29.7in /  1005.4hPa Calm     88% 0in /  0.0mm 0 W/m2
04:33 62.8 °F /  17.1 °C 59.2 °F /  15.1 °C 29.7in /  1005.4hPa Calm     88% 0in /  0.0mm 0 W/m2
04:38 62.4 °F /  16.9 °C 59.2 °F /  15.1 °C 29.7in /  1005.4hPa Calm     89% 0in /  0.0mm 0 W/m2
04:43 62.2 °F /  16.8 °C 59.2 °F /  15.1 °C 29.7in /  1005.4hPa WSW 0.9mph /  1.4km/h 2mph /  3.2km/h 90% 0in /  0.0mm 0 W/m2
04:48 62.1 °F /  16.7 °C 59.2 °F /  15.1 °C 29.7in /  1005.4hPa WNW 0.9mph /  1.4km/h 2mph /  3.2km/h 90% 0in /  0.0mm 0 W/m2
04:53 61.9 °F /  16.6 °C 59 °F /  15 °C 29.7in /  1005.4hPa WNW 0.9mph /  1.4km/h 2mph /  3.2km/h 90% 0in /  0.0mm 0 W/m2
04:58 61.9 °F /  16.6 °C 59 °F /  15 °C 29.7in /  1005.1hPa West 0.9mph /  1.4km/h 3mph /  4.8km/h 90% 0in /  0.0mm 0 W/m2
05:03 61.9 °F /  16.6 °C 59 °F /  15 °C 29.7in /  1005.1hPa Calm   2mph /  3.2km/h 90% 0in /  0.0mm 0 W/m2
05:08 61.5 °F /  16.4 °C 58.6 °F /  14.8 °C 29.7in /  1005.1hPa Calm   1mph /  1.6km/h 90% 0in /  0.0mm 0 W/m2
05:13 61.3 °F /  16.3 °C 58.6 °F /  14.8 °C 29.7in /  1005.1hPa WSW 0.9mph /  1.4km/h 1mph /  1.6km/h 91% 0in /  0.0mm 0 W/m2
05:18 61.3 °F /  16.3 °C 58.6 °F /  14.8 °C 29.7in /  1005.1hPa West 2.9mph /  4.7km/h 7mph /  11.3km/h 91% 0in /  0.0mm 0 W/m2
05:23 61.9 °F /  16.6 °C 59.2 °F /  15.1 °C 29.7in /  1005.1hPa WNW 2mph /  3.2km/h 4mph /  6.4km/h 91% 0in /  0.0mm 0 W/m2
05:28 62.1 °F /  16.7 °C 59.4 °F /  15.2 °C 29.7in /  1005.1hPa West 2mph /  3.2km/h 2mph /  3.2km/h 91% 0in /  0.0mm 0 W/m2
05:33 62.1 °F /  16.7 °C 59.2 °F /  15.1 °C 29.7in /  1005.1hPa SSW 0.9mph /  1.4km/h 4mph /  6.4km/h 90% 0in /  0.0mm 0 W/m2
05:38 62.1 °F /  16.7 °C 59.2 °F /  15.1 °C 29.7in /  1004.7hPa Calm   2mph /  3.2km/h 90% 0in /  0.0mm 0 W/m2
05:43 61.9 °F /  16.6 °C 59 °F /  15 °C 29.7in /  1005.1hPa Calm   1mph /  1.6km/h 90% 0in /  0.0mm 0 W/m2
05:48 61.5 °F /  16.4 °C 58.6 °F /  14.8 °C 29.7in /  1005.1hPa Calm     90% 0in /  0.0mm 0 W/m2
05:54 61.3 °F /  16.3 °C 58.6 °F /  14.8 °C 29.7in /  1004.7hPa SSW 0.9mph /  1.4km/h 1mph /  1.6km/h 91% 0in /  0.0mm 0 W/m2
05:59 61 °F /  16.1 °C 58.3 °F /  14.6 °C 29.7in /  1004.7hPa SSW 0.9mph /  1.4km/h 1mph /  1.6km/h 91% 0in /  0.0mm 0 W/m2
06:04 60.6 °F /  15.9 °C 57.9 °F /  14.4 °C 29.7in /  1004.7hPa Calm     91% 0in /  0.0mm 0 W/m2
06:09 60.4 °F /  15.8 °C 57.7 °F /  14.3 °C 29.7in /  1004.7hPa Calm     91% 0in /  0.0mm 0 W/m2
06:14 60.3 °F /  15.7 °C 57.9 °F /  14.4 °C 29.7in /  1004.7hPa West 0.9mph /  1.4km/h 7mph /  11.3km/h 92% 0in /  0.0mm 0 W/m2
06:19 60.4 °F /  15.8 °C 58.1 °F /  14.5 °C 29.7in /  1004.7hPa WSW 2mph /  3.2km/h 8mph /  12.9km/h 92% 0in /  0.0mm 0 W/m2
06:24 60.4 °F /  15.8 °C 57.7 °F /  14.3 °C 29.7in /  1004.7hPa WSW 2mph /  3.2km/h 4mph /  6.4km/h 91% 0in /  0.0mm 0 W/m2
06:29 60.4 °F /  15.8 °C 57.6 °F /  14.2 °C 29.7in /  1004.7hPa Calm   1mph /  1.6km/h 90% 0in /  0.0mm 0 W/m2
06:34 60.4 °F /  15.8 °C 57.6 °F /  14.2 °C 29.7in /  1004.7hPa Calm   4mph /  6.4km/h 90% 0in /  0.0mm 0 W/m2
06:39 60.3 °F /  15.7 °C 57.4 °F /  14.1 °C 29.7in /  1004.7hPa Calm   1mph /  1.6km/h 90% 0in /  0.0mm 0 W/m2
06:44 59.9 °F /  15.5 °C 57 °F /  13.9 °C 29.7in /  1005.1hPa Calm     90% 0in /  0.0mm 0 W/m2
06:49 59.5 °F /  15.3 °C 56.8 °F /  13.8 °C 29.7in /  1004.7hPa SSW 0.9mph /  1.4km/h 2mph /  3.2km/h 91% 0in /  0.0mm 0 W/m2
06:54 59.4 °F /  15.2 °C 56.7 °F /  13.7 °C 29.7in /  1004.7hPa Calm     91% 0in /  0.0mm 5 W/m2
06:59 59.2 °F /  15.1 °C 56.8 °F /  13.8 °C 29.7in /  1004.7hPa Calm   1mph /  1.6km/h 92% 0in /  0.0mm 7 W/m2
07:04 59.2 °F /  15.1 °C 56.8 °F /  13.8 °C 29.7in /  1004.7hPa Calm   2mph /  3.2km/h 92% 0in /  0.0mm 9 W/m2
07:09 59.2 °F /  15.1 °C 56.8 °F /  13.8 °C 29.7in /  1004.7hPa East 0.9mph /  1.4km/h 1mph /  1.6km/h 92% 0in /  0.0mm 9 W/m2
07:14 59.2 °F /  15.1 °C 56.8 °F /  13.8 °C 29.7in /  1004.7hPa Calm   3mph /  4.8km/h 92% 0in /  0.0mm 11 W/m2
07:19 59.2 °F /  15.1 °C 56.8 °F /  13.8 °C 29.7in /  1004.7hPa Calm   1mph /  1.6km/h 92% 0in /  0.0mm 12 W/m2
07:24 59.2 °F /  15.1 °C 56.8 °F /  13.8 °C 29.7in /  1004.7hPa Calm   3mph /  4.8km/h 92% 0in /  0.0mm 18 W/m2
07:29 59.2 °F /  15.1 °C 56.5 °F /  13.6 °C 29.7in /  1004.7hPa Calm     91% 0in /  0.0mm 19 W/m2
07:34 59.4 °F /  15.2 °C 57 °F /  13.9 °C 29.7in /  1004.4hPa Calm   2mph /  3.2km/h 92% 0in /  0.0mm 26 W/m2
07:39 59.5 °F /  15.3 °C 57.2 °F /  14 °C 29.7in /  1004.4hPa West 0.9mph /  1.4km/h 1mph /  1.6km/h 92% 0in /  0.0mm 39 W/m2
07:45 59.7 °F /  15.4 °C 57 °F /  13.9 °C 29.7in /  1004.7hPa ESE 2.9mph /  4.7km/h 6mph /  9.7km/h 91% 0in /  0.0mm 54 W/m2
07:50 60.1 °F /  15.6 °C 57.4 °F /  14.1 °C 29.7in /  1004.7hPa ENE 0.9mph /  1.4km/h 2mph /  3.2km/h 91% 0in /  0.0mm 60 W/m2
07:55 60.4 °F /  15.8 °C 57.2 °F /  14 °C 29.7in /  1004.7hPa Calm   6mph /  9.7km/h 89% 0in /  0.0mm 65 W/m2
08:00 60.6 °F /  15.9 °C 57 °F /  13.9 °C 29.7in /  1004.7hPa North 0.9mph /  1.4km/h 1mph /  1.6km/h 88% 0in /  0.0mm 70 W/m2
08:05 60.8 °F /  16 °C 57.2 °F /  14 °C 29.7in /  1004.4hPa NW 0.9mph /  1.4km/h 2mph /  3.2km/h 88% 0in /  0.0mm 49 W/m2
08:10 61 °F /  16.1 °C 57 °F /  13.9 °C 29.7in /  1004.4hPa Calm     87% 0in /  0.0mm 49 W/m2
08:15 61 °F /  16.1 °C 56.8 °F /  13.8 °C 29.7in /  1004.4hPa WNW 0.9mph /  1.4km/h 2mph /  3.2km/h 86% 0in /  0.0mm 58 W/m2
08:20 61.2 °F /  16.2 °C 57 °F /  13.9 °C 29.7in /  1004.4hPa SSW 0.9mph /  1.4km/h 2mph /  3.2km/h 86% 0in /  0.0mm 81 W/m2
08:25 61.3 °F /  16.3 °C 56.8 °F /  13.8 °C 29.7in /  1004.4hPa Calm   2mph /  3.2km/h 85% 0in /  0.0mm 165 W/m2
08:30 61.7 °F /  16.5 °C 57.2 °F /  14 °C 29.7in /  1004.4hPa NW 0.9mph /  1.4km/h 2mph /  3.2km/h 85% 0in /  0.0mm 114 W/m2
08:35 61.9 °F /  16.6 °C 57 °F /  13.9 °C 29.7in /  1004.7hPa Calm   1mph /  1.6km/h 84% 0in /  0.0mm 84 W/m2
08:40 62.1 °F /  16.7 °C 56.8 °F /  13.8 °C 29.7in /  1004.7hPa West 0.9mph /  1.4km/h 3mph /  4.8km/h 83% 0in /  0.0mm 65 W/m2
08:45 62.2 °F /  16.8 °C 56.7 °F /  13.7 °C 29.7in /  1004.7hPa NNW 0.9mph /  1.4km/h 7mph /  11.3km/h 82% 0in /  0.0mm 114 W/m2
08:50 62.2 °F /  16.8 °C 56.7 °F /  13.7 °C 29.7in /  1004.7hPa North 0.9mph /  1.4km/h 2mph /  3.2km/h 82% 0in /  0.0mm 255 W/m2
08:55 62.8 °F /  17.1 °C 57.2 °F /  14 °C 29.7in /  1004.7hPa NW 0.9mph /  1.4km/h 7mph /  11.3km/h 82% 0in /  0.0mm 262 W/m2
09:00 63 °F /  17.2 °C 56.7 °F /  13.7 °C 29.7in /  1004.7hPa WSW 2mph /  3.2km/h 4mph /  6.4km/h 80% 0in /  0.0mm 116 W/m2
09:05 63 °F /  17.2 °C 56.3 °F /  13.5 °C 29.7in /  1004.4hPa NW 2.9mph /  4.7km/h 5mph /  8km/h 79% 0in /  0.0mm 105 W/m2
09:10 63 °F /  17.2 °C 56.3 °F /  13.5 °C 29.7in /  1004.1hPa Calm   1mph /  1.6km/h 79% 0in /  0.0mm 72 W/m2
09:16 63 °F /  17.2 °C 56.3 °F /  13.5 °C 29.7in /  1004.4hPa WNW 2.9mph /  4.7km/h 3mph /  4.8km/h 79% 0in /  0.0mm 60 W/m2
09:21 63 °F /  17.2 °C 56.3 °F /  13.5 °C 29.7in /  1004.7hPa NNW 2mph /  3.2km/h 4mph /  6.4km/h 79% 0in /  0.0mm 135 W/m2
09:26 63.1 °F /  17.3 °C 56.1 °F /  13.4 °C 29.7in /  1004.4hPa West 2mph /  3.2km/h 3mph /  4.8km/h 78% 0in /  0.0mm 88 W/m2
09:31 63.1 °F /  17.3 °C 56.1 °F /  13.4 °C 29.6in /  1003.7hPa Calm   1mph /  1.6km/h 78% 0in /  0.0mm 81 W/m2
09:36 63.1 °F /  17.3 °C 55.8 °F /  13.2 °C 29.6in /  1003.0hPa Calm   3mph /  4.8km/h 77% 0in /  0.0mm 176 W/m2
09:41 63.3 °F /  17.4 °C 55.9 °F /  13.3 °C 29.6in /  1003.4hPa Calm     77% 0in /  0.0mm 105 W/m2
09:46 63.9 °F /  17.7 °C 56.1 °F /  13.4 °C 29.7in /  1004.1hPa West 2.9mph /  4.7km/h 3mph /  4.8km/h 76% 0in /  0.0mm 88 W/m2
09:51 64 °F /  17.8 °C 56.3 °F /  13.5 °C 29.7in /  1004.1hPa WNW 2mph /  3.2km/h 2mph /  3.2km/h 76% 0in /  0.0mm 137 W/m2
09:56 64.2 °F /  17.9 °C 56.5 °F /  13.6 °C 29.7in /  1004.1hPa East 2mph /  3.2km/h 3mph /  4.8km/h 76% 0in /  0.0mm 149 W/m2
10:01 64.4 °F /  18 °C 56.3 °F /  13.5 °C 29.7in /  1004.4hPa NW 2.9mph /  4.7km/h 3mph /  4.8km/h 75% 0in /  0.0mm 130 W/m2
10:06 64.2 °F /  17.9 °C 56.5 °F /  13.6 °C 29.7in /  1004.1hPa NE 2mph /  3.2km/h 2mph /  3.2km/h 76% 0in /  0.0mm 97 W/m2
10:11 64.2 °F /  17.9 °C 56.5 °F /  13.6 °C 29.7in /  1004.1hPa ESE 2mph /  3.2km/h 3mph /  4.8km/h 76% 0in /  0.0mm 225 W/m2
10:16 64.2 °F /  17.9 °C 57.2 °F /  14 °C 29.6in /  1003.7hPa Calm   3mph /  4.8km/h 78% 0in /  0.0mm 197 W/m2
10:21 64.2 °F /  17.9 °C 56.8 °F /  13.8 °C 29.6in /  1003.7hPa WNW 2.9mph /  4.7km/h 3mph /  4.8km/h 77% 0in /  0.0mm 134 W/m2
10:26 64.4 °F /  18 °C 57.4 °F /  14.1 °C 29.6in /  1003.7hPa NNW 0.9mph /  1.4km/h 2mph /  3.2km/h 78% 0in /  0.0mm 606 W/m2
10:31 64.8 °F /  18.2 °C 58.1 °F /  14.5 °C 29.6in /  1003.4hPa NW 2mph /  3.2km/h 6mph /  9.7km/h 79% 0in /  0.0mm 606 W/m2
10:36 65.1 °F /  18.4 °C 58.5 °F /  14.7 °C 29.6in /  1003.4hPa WNW 4mph /  6.4km/h 5mph /  8km/h 79% 0in /  0.0mm 708 W/m2
10:41 65.7 °F /  18.7 °C 58.6 °F /  14.8 °C 29.6in /  1003.4hPa West 0.9mph /  1.4km/h 4mph /  6.4km/h 78% 0in /  0.0mm 434 W/m2
10:46 65.8 °F /  18.8 °C 58.1 °F /  14.5 °C 29.6in /  1003.4hPa West 6mph /  9.7km/h 6mph /  9.7km/h 76% 0in /  0.0mm 121 W/m2
10:51 65.5 °F /  18.6 °C 57.4 °F /  14.1 °C 29.6in /  1003.4hPa WNW 2.9mph /  4.7km/h 4mph /  6.4km/h 75% 0in /  0.0mm 137 W/m2
10:56 65.5 °F /  18.6 °C 57.4 °F /  14.1 °C 29.6in /  1003.4hPa North 0.9mph /  1.4km/h 1mph /  1.6km/h 75% 0in /  0.0mm 195 W/m2
11:01 65.5 °F /  18.6 °C 57.4 °F /  14.1 °C 29.6in /  1003.4hPa East 6.9mph /  11.1km/h 8mph /  12.9km/h 75% 0in /  0.0mm 153 W/m2
11:06 65.5 °F /  18.6 °C 56.3 °F /  13.5 °C 29.6in /  1003.0hPa NW 4.9mph /  7.9km/h 6mph /  9.7km/h 72% 0in /  0.0mm 255 W/m2
11:11 65.5 °F /  18.6 °C 55.4 °F /  13 °C 29.6in /  1003.0hPa West 0.9mph /  1.4km/h 8mph /  12.9km/h 70% 0in /  0.0mm 225 W/m2
11:16 66 °F /  18.9 °C 55.9 °F /  13.3 °C 29.6in /  1003.0hPa West 2.9mph /  4.7km/h 6mph /  9.7km/h 70% 0in /  0.0mm 248 W/m2
11:21 66.6 °F /  19.2 °C 56.5 °F /  13.6 °C 29.6in /  1003.0hPa West 8.1mph /  13km/h 8mph /  12.9km/h 70% 0in /  0.0mm 229 W/m2
11:26 66.7 °F /  19.3 °C 56.7 °F /  13.7 °C 29.6in /  1003.0hPa NNW 2mph /  3.2km/h 3mph /  4.8km/h 70% 0in /  0.0mm 195 W/m2
11:31 66.7 °F /  19.3 °C 55.8 °F /  13.2 °C 29.6in /  1003.0hPa NW 4.9mph /  7.9km/h 5mph /  8km/h 68% 0in /  0.0mm 188 W/m2
11:36 66.7 °F /  19.3 °C 55 °F /  12.8 °C 29.6in /  1003.0hPa WNW 2mph /  3.2km/h 3mph /  4.8km/h 66% 0in /  0.0mm 297 W/m2
11:41 67.1 °F /  19.5 °C 54.9 °F /  12.7 °C 29.6in /  1002.7hPa WSW 0.9mph /  1.4km/h 3mph /  4.8km/h 65% 0in /  0.0mm 366 W/m2
11:46 67.6 °F /  19.8 °C 55.9 °F /  13.3 °C 29.6in /  1002.7hPa WNW 2mph /  3.2km/h 3mph /  4.8km/h 66% 0in /  0.0mm 631 W/m2
11:51 67.8 °F /  19.9 °C 55.6 °F /  13.1 °C 29.6in /  1002.7hPa North 2mph /  3.2km/h 7mph /  11.3km/h 65% 0in /  0.0mm 394 W/m2
11:56 68.2 °F /  20.1 °C 55 °F /  12.8 °C 29.6in /  1002.7hPa NW 4mph /  6.4km/h 8mph /  12.9km/h 63% 0in /  0.0mm 417 W/m2
12:01 67.8 °F /  19.9 °C 54.3 °F /  12.4 °C 29.6in /  1002.7hPa WNW 4mph /  6.4km/h 9mph /  14.5km/h 62% 0in /  0.0mm 269 W/m2
12:06 67.6 °F /  19.8 °C 54.7 °F /  12.6 °C 29.6in /  1003.0hPa NW 0.9mph /  1.4km/h 4mph /  6.4km/h 63% 0in /  0.0mm 313 W/m2
12:11 68.2 °F /  20.1 °C 54.7 °F /  12.6 °C 29.6in /  1002.7hPa West 2.9mph /  4.7km/h 10mph /  16.1km/h 62% 0in /  0.0mm 274 W/m2
12:16 68.2 °F /  20.1 °C 54.1 °F /  12.3 °C 29.6in /  1002.7hPa North 2mph /  3.2km/h 7mph /  11.3km/h 61% 0in /  0.0mm 380 W/m2
12:21 68.4 °F /  20.2 °C 54.3 °F /  12.4 °C 29.6in /  1002.7hPa NW 0.9mph /  1.4km/h 7mph /  11.3km/h 61% 0in /  0.0mm 394 W/m2
12:26 68.4 °F /  20.2 °C 54 °F /  12.2 °C 29.6in /  1002.7hPa NNW 2mph /  3.2km/h 8mph /  12.9km/h 60% 0in /  0.0mm 322 W/m2
12:31 68.4 °F /  20.2 °C 54 °F /  12.2 °C 29.6in /  1002.7hPa NNW 6mph /  9.7km/h 7mph /  11.3km/h 60% 0in /  0.0mm 315 W/m2
12:36 68.4 °F /  20.2 °C 54 °F /  12.2 °C 29.6in /  1002.7hPa NW 0.9mph /  1.4km/h 4mph /  6.4km/h 60% 0in /  0.0mm 346 W/m2
12:41 68.4 °F /  20.2 °C 54 °F /  12.2 °C 29.6in /  1002.7hPa NW 0.9mph /  1.4km/h 6mph /  9.7km/h 60% 0in /  0.0mm 348 W/m2
12:46 68.4 °F /  20.2 °C 54 °F /  12.2 °C 29.6in /  1002.7hPa NNW 2mph /  3.2km/h 6mph /  9.7km/h 60% 0in /  0.0mm 339 W/m2
12:51 68.4 °F /  20.2 °C 52.5 °F /  11.4 °C 29.6in /  1002.7hPa Calm   7mph /  11.3km/h 57% 0in /  0.0mm 352 W/m2
12:56 68.5 °F /  20.3 °C 52.7 °F /  11.5 °C 29.6in /  1002.7hPa WSW 2mph /  3.2km/h 4mph /  6.4km/h 57% 0in /  0.0mm 387 W/m2
13:01 68.5 °F /  20.3 °C 52.7 °F /  11.5 °C 29.6in /  1002.4hPa NNW 4mph /  6.4km/h 7mph /  11.3km/h 57% 0in /  0.0mm 359 W/m2
13:06 68.5 °F /  20.3 °C 52.7 °F /  11.5 °C 29.6in /  1002.4hPa West 2mph /  3.2km/h 5mph /  8km/h 57% 0in /  0.0mm 339 W/m2
13:11 68.7 °F /  20.4 °C 53.4 °F /  11.9 °C 29.6in /  1002.7hPa NNW 4mph /  6.4km/h 4mph /  6.4km/h 58% 0in /  0.0mm 322 W/m2
13:16 68.5 °F /  20.3 °C 51.8 °F /  11 °C 29.6in /  1002.4hPa NW 2.9mph /  4.7km/h 11mph /  17.7km/h 55% 0in /  0.0mm 311 W/m2
13:21 68.4 °F /  20.2 °C 52 °F /  11.1 °C 29.6in /  1002.4hPa South 2mph /  3.2km/h 10mph /  16.1km/h 56% 0in /  0.0mm 316 W/m2
13:26 68.4 °F /  20.2 °C 52.5 °F /  11.4 °C 29.6in /  1002.4hPa WSW 6mph /  9.7km/h 10mph /  16.1km/h 57% 0in /  0.0mm 315 W/m2
13:31 68.4 °F /  20.2 °C 52 °F /  11.1 °C 29.6in /  1002.4hPa WSW 6mph /  9.7km/h 6mph /  9.7km/h 56% 0in /  0.0mm 311 W/m2
13:36 68.4 °F /  20.2 °C 51.6 °F /  10.9 °C 29.6in /  1002.4hPa NW 2.9mph /  4.7km/h 5mph /  8km/h 55% 0in /  0.0mm 301 W/m2
13:41 68.5 °F /  20.3 °C 51.8 °F /  11 °C 29.6in /  1002.4hPa NW 0.9mph /  1.4km/h 10mph /  16.1km/h 55% 0in /  0.0mm 309 W/m2
13:46 68.4 °F /  20.2 °C 52 °F /  11.1 °C 29.6in /  1002.4hPa NW 2mph /  3.2km/h 4mph /  6.4km/h 56% 0in /  0.0mm 272 W/m2
13:51 68.2 °F /  20.1 °C 52.3 °F /  11.3 °C 29.6in /  1002.4hPa WNW 4mph /  6.4km/h 10mph /  16.1km/h 57% 0in /  0.0mm 264 W/m2
13:56 67.8 °F /  19.9 °C 52.5 °F /  11.4 °C 29.6in /  1002.4hPa SW 4.9mph /  7.9km/h 8mph /  12.9km/h 58% 0in /  0.0mm 276 W/m2
14:01 67.8 °F /  19.9 °C 52.9 °F /  11.6 °C 29.6in /  1002.4hPa West 4mph /  6.4km/h 4mph /  6.4km/h 59% 0in /  0.0mm 276 W/m2
14:06 68.2 °F /  20.1 °C 53.2 °F /  11.8 °C 29.6in /  1002.7hPa WSW 6mph /  9.7km/h 8mph /  12.9km/h 59% 0in /  0.0mm 253 W/m2
14:11 68 °F /  20 °C 53.1 °F /  11.7 °C 29.6in /  1002.4hPa West 2mph /  3.2km/h 6mph /  9.7km/h 59% 0in /  0.0mm 383 W/m2
14:16 68 °F /  20 °C 53.1 °F /  11.7 °C 29.6in /  1002.7hPa SW 2mph /  3.2km/h 6mph /  9.7km/h 59% 0in /  0.0mm 364 W/m2
14:21 68 °F /  20 °C 52.7 °F /  11.5 °C 29.6in /  1002.4hPa West 8.1mph /  13km/h 8mph /  12.9km/h 58% 0in /  0.0mm 350 W/m2
14:26 67.8 °F /  19.9 °C 51.6 °F /  10.9 °C 29.6in /  1002.4hPa WNW 4mph /  6.4km/h 5mph /  8km/h 56% 0in /  0.0mm 359 W/m2
14:31 67.6 °F /  19.8 °C 51.4 °F /  10.8 °C 29.6in /  1002.4hPa North 2.9mph /  4.7km/h 15mph /  24.1km/h 56% 0in /  0.0mm 410 W/m2
14:36 67.6 °F /  19.8 °C 51.4 °F /  10.8 °C 29.6in /  1002.4hPa WNW 4mph /  6.4km/h 7mph /  11.3km/h 56% 0in /  0.0mm 390 W/m2
14:41 68 °F /  20 °C 50.7 °F /  10.4 °C 29.6in /  1002.4hPa West 12.1mph /  19.5km/h 13mph /  20.9km/h 54% 0in /  0.0mm 406 W/m2
14:47 67.8 °F /  19.9 °C 51.6 °F /  10.9 °C 29.6in /  1002.4hPa SSW 2mph /  3.2km/h 4mph /  6.4km/h 56% 0in /  0.0mm 346 W/m2
14:52 68.2 °F /  20.1 °C 50.9 °F /  10.5 °C 29.6in /  1002.7hPa West 10.1mph /  16.3km/h 13mph /  20.9km/h 54% 0in /  0.0mm 381 W/m2
14:57 68 °F /  20 °C 50.7 °F /  10.4 °C 29.6in /  1002.7hPa West 4mph /  6.4km/h 6mph /  9.7km/h 54% 0in /  0.0mm 360 W/m2
15:02 68.2 °F /  20.1 °C 51.4 °F /  10.8 °C 29.6in /  1002.4hPa WNW 2mph /  3.2km/h 12mph /  19.3km/h 55% 0in /  0.0mm 489 W/m2
15:07 68.2 °F /  20.1 °C 51.4 °F /  10.8 °C 29.6in /  1002.4hPa West 6mph /  9.7km/h 9mph /  14.5km/h 55% 0in /  0.0mm 316 W/m2
15:12 68 °F /  20 °C 51.8 °F /  11 °C 29.6in /  1002.4hPa West 8.9mph /  14.3km/h 11mph /  17.7km/h 56% 0in /  0.0mm 320 W/m2
15:17 68.2 °F /  20.1 °C 51.8 °F /  11 °C 29.6in /  1002.4hPa NNW 4mph /  6.4km/h 16mph /  25.7km/h 56% 0in /  0.0mm 323 W/m2
15:22 68 °F /  20 °C 51.8 °F /  11 °C 29.6in /  1002.4hPa West 4mph /  6.4km/h 4mph /  6.4km/h 56% 0in /  0.0mm 411 W/m2
15:27 68.2 °F /  20.1 °C 51.8 °F /  11 °C 29.6in /  1002.4hPa West 4mph /  6.4km/h 13mph /  20.9km/h 56% 0in /  0.0mm 450 W/m2
15:32 68.2 °F /  20.1 °C 51.8 °F /  11 °C 29.6in /  1002.4hPa NW 8.1mph /  13km/h 11mph /  17.7km/h 56% 0in /  0.0mm 315 W/m2
15:37 68.4 °F /  20.2 °C 52.5 °F /  11.4 °C 29.6in /  1002.4hPa West 2.9mph /  4.7km/h 6mph /  9.7km/h 57% 0in /  0.0mm 357 W/m2
15:42 68.5 °F /  20.3 °C 52.2 °F /  11.2 °C 29.6in /  1002.0hPa West 4mph /  6.4km/h 7mph /  11.3km/h 56% 0in /  0.0mm 366 W/m2
15:47 68.9 °F /  20.5 °C 52 °F /  11.1 °C 29.6in /  1002.0hPa NW 2mph /  3.2km/h 6mph /  9.7km/h 55% 0in /  0.0mm 315 W/m2
15:52 69.3 °F /  20.7 °C 52.9 °F /  11.6 °C 29.6in /  1002.0hPa WNW 4.9mph /  7.9km/h 5mph /  8km/h 56% 0in /  0.0mm 490 W/m2
15:57 69.4 °F /  20.8 °C 52.2 °F /  11.2 °C 29.6in /  1002.0hPa NW 0.9mph /  1.4km/h 5mph /  8km/h 54% 0in /  0.0mm 501 W/m2
16:02 69.3 °F /  20.7 °C 52 °F /  11.1 °C 29.6in /  1002.0hPa Calm   3mph /  4.8km/h 54% 0in /  0.0mm 353 W/m2
16:08 69.3 °F /  20.7 °C 52 °F /  11.1 °C 29.6in /  1002.0hPa SW 4.9mph /  7.9km/h 11mph /  17.7km/h 54% 0in /  0.0mm 374 W/m2
16:13 69.3 °F /  20.7 °C 52.3 °F /  11.3 °C 29.6in /  1002.0hPa NW 2.9mph /  4.7km/h 7mph /  11.3km/h 55% 0in /  0.0mm 348 W/m2
16:18 69.6 °F /  20.9 °C 52.7 °F /  11.5 °C 29.6in /  1002.0hPa NW 2.9mph /  4.7km/h 11mph /  17.7km/h 55% 0in /  0.0mm 480 W/m2
16:23 69.6 °F /  20.9 °C 53.2 °F /  11.8 °C 29.6in /  1002.0hPa NNW 0.9mph /  1.4km/h 3mph /  4.8km/h 56% 0in /  0.0mm 338 W/m2
16:28 69.6 °F /  20.9 °C 51.8 °F /  11 °C 29.6in /  1001.7hPa WNW 2mph /  3.2km/h 13mph /  20.9km/h 53% 0in /  0.0mm 295 W/m2
16:33 69.4 °F /  20.8 °C 52.2 °F /  11.2 °C 29.6in /  1002.0hPa NNW 2.9mph /  4.7km/h 5mph /  8km/h 54% 0in /  0.0mm 320 W/m2
16:38 69.4 °F /  20.8 °C 51.6 °F /  10.9 °C 29.6in /  1002.0hPa SE 4mph /  6.4km/h 10mph /  16.1km/h 53% 0in /  0.0mm 285 W/m2
16:43 69.4 °F /  20.8 °C 52.2 °F /  11.2 °C 29.6in /  1001.7hPa WNW 2mph /  3.2km/h 4mph /  6.4km/h 54% 0in /  0.0mm 297 W/m2
16:48 69.6 °F /  20.9 °C 51.8 °F /  11 °C 29.6in /  1001.7hPa NW 2mph /  3.2km/h 8mph /  12.9km/h 53% 0in /  0.0mm 318 W/m2
16:53 70 °F /  21.1 °C 52 °F /  11.1 °C 29.6in /  1001.7hPa ENE 0.9mph /  1.4km/h 4mph /  6.4km/h 53% 0in /  0.0mm 570 W/m2
16:58 70.3 °F /  21.3 °C 52.3 °F /  11.3 °C 29.6in /  1001.7hPa WNW 2mph /  3.2km/h 7mph /  11.3km/h 53% 0in /  0.0mm 471 W/m2
17:03 70.5 °F /  21.4 °C 52 °F /  11.1 °C 29.6in /  1001.4hPa NW 2mph /  3.2km/h 9mph /  14.5km/h 52% 0in /  0.0mm 306 W/m2
17:08 70.5 °F /  21.4 °C 52.5 °F /  11.4 °C 29.6in /  1001.4hPa WNW 2.9mph /  4.7km/h 6mph /  9.7km/h 53% 0in /  0.0mm 171 W/m2
17:13 70.5 °F /  21.4 °C 52 °F /  11.1 °C 29.6in /  1001.4hPa West 2mph /  3.2km/h 9mph /  14.5km/h 52% 0in /  0.0mm 151 W/m2
17:18 70.2 °F /  21.2 °C 51.8 °F /  11 °C 29.6in /  1001.4hPa North 2mph /  3.2km/h 3mph /  4.8km/h 52% 0in /  0.0mm 146 W/m2
17:23 70.2 °F /  21.2 °C 51.8 °F /  11 °C 29.6in /  1001.4hPa NW 2mph /  3.2km/h 7mph /  11.3km/h 52% 0in /  0.0mm 190 W/m2
17:28 70.2 °F /  21.2 °C 52.2 °F /  11.2 °C 29.6in /  1001.4hPa West 4mph /  6.4km/h 4mph /  6.4km/h 53% 0in /  0.0mm 165 W/m2
17:33 70.2 °F /  21.2 °C 51.8 °F /  11 °C 29.6in /  1001.4hPa NW 4mph /  6.4km/h 7mph /  11.3km/h 52% 0in /  0.0mm 490 W/m2
17:38 70.3 °F /  21.3 °C 52.3 °F /  11.3 °C 29.6in /  1001.4hPa Calm   8mph /  12.9km/h 53% 0in /  0.0mm 148 W/m2
17:43 70.3 °F /  21.3 °C 51.8 °F /  11 °C 29.6in /  1001.0hPa NNE 0.9mph /  1.4km/h 4mph /  6.4km/h 52% 0in /  0.0mm 200 W/m2
17:48 70.2 °F /  21.2 °C 51.8 °F /  11 °C 29.6in /  1001.0hPa WNW 4mph /  6.4km/h 8mph /  12.9km/h 52% 0in /  0.0mm 95 W/m2
17:53 69.8 °F /  21 °C 52 °F /  11.1 °C 29.6in /  1001.0hPa ENE 0.9mph /  1.4km/h 5mph /  8km/h 53% 0in /  0.0mm 88 W/m2
17:58 69.6 °F /  20.9 °C 51.8 °F /  11 °C 29.6in /  1001.0hPa WNW 2.9mph /  4.7km/h 6mph /  9.7km/h 53% 0in /  0.0mm 86 W/m2
18:03 69.4 °F /  20.8 °C 51.6 °F /  10.9 °C 29.6in /  1001.0hPa WNW 2.9mph /  4.7km/h 4mph /  6.4km/h 53% 0in /  0.0mm 111 W/m2
18:08 69.4 °F /  20.8 °C 52.2 °F /  11.2 °C 29.6in /  1001.0hPa NNW 0.9mph /  1.4km/h 5mph /  8km/h 54% 0in /  0.0mm 111 W/m2
18:13 69.4 °F /  20.8 °C 52.2 °F /  11.2 °C 29.6in /  1001.0hPa NW 2mph /  3.2km/h 3mph /  4.8km/h 54% 0in /  0.0mm 83 W/m2
18:18 69.4 °F /  20.8 °C 52.2 °F /  11.2 °C 29.6in /  1001.0hPa WNW 4mph /  6.4km/h 4mph /  6.4km/h 54% 0in /  0.0mm 88 W/m2
18:23 69.3 °F /  20.7 °C 52 °F /  11.1 °C 29.6in /  1001.0hPa NW 2mph /  3.2km/h 5mph /  8km/h 54% 0in /  0.0mm 98 W/m2
18:28 69.3 °F /  20.7 °C 52.3 °F /  11.3 °C 29.6in /  1000.7hPa Calm   2mph /  3.2km/h 55% 0in /  0.0mm 79 W/m2
18:33 69.3 °F /  20.7 °C 52 °F /  11.1 °C 29.6in /  1000.7hPa West 4mph /  6.4km/h 7mph /  11.3km/h 54% 0in /  0.0mm 104 W/m2
18:38 69.3 °F /  20.7 °C 52 °F /  11.1 °C 29.6in /  1000.7hPa NW 2.9mph /  4.7km/h 4mph /  6.4km/h 54% 0in /  0.0mm 47 W/m2
18:43 69.3 °F /  20.7 °C 52.3 °F /  11.3 °C 29.6in /  1001.4hPa WSW 9mph /  14.5km/h 9mph /  14.5km/h 55% 0in /  0.0mm 39 W/m2
18:48 68.4 °F /  20.2 °C 49.5 °F /  9.7 °C 29.6in /  1001.4hPa WNW 8.1mph /  13km/h 11mph /  17.7km/h 51% 0in /  0.0mm 42 W/m2
18:53 66.9 °F /  19.4 °C 50.2 °F /  10.1 °C 29.6in /  1001.4hPa West 6.9mph /  11.1km/h 10mph /  16.1km/h 55% 0in /  0.0mm 65 W/m2
18:58 65.8 °F /  18.8 °C 50.2 °F /  10.1 °C 29.6in /  1001.4hPa WSW 6.9mph /  11.1km/h 10mph /  16.1km/h 57% 0in /  0.0mm 90 W/m2
19:03 64.9 °F /  18.3 °C 51.1 °F /  10.6 °C 29.6in /  1001.4hPa West 6mph /  9.7km/h 11mph /  17.7km/h 61% 0in /  0.0mm 148 W/m2
19:08 64.2 °F /  17.9 °C 51.8 °F /  11 °C 29.6in /  1001.4hPa West 2.9mph /  4.7km/h 5mph /  8km/h 64% 0in /  0.0mm 69 W/m2
19:13 63.9 °F /  17.7 °C 51.4 °F /  10.8 °C 29.6in /  1001.4hPa NW 2.9mph /  4.7km/h 11mph /  17.7km/h 64% 0in /  0.0mm 70 W/m2
19:18 63.7 °F /  17.6 °C 52.2 °F /  11.2 °C 29.6in /  1001.0hPa NW 2.9mph /  4.7km/h 4mph /  6.4km/h 66% 0in /  0.0mm 172 W/m2
19:23 63.9 °F /  17.7 °C 52.3 °F /  11.3 °C 29.6in /  1001.0hPa NNW 2mph /  3.2km/h 5mph /  8km/h 66% 0in /  0.0mm 155 W/m2
19:28 64 °F /  17.8 °C 52.5 °F /  11.4 °C 29.6in /  1001.0hPa Calm   1mph /  1.6km/h 66% 0in /  0.0mm 132 W/m2
19:33 64.2 °F /  17.9 °C 52.7 °F /  11.5 °C 29.6in /  1001.0hPa NW 2mph /  3.2km/h 3mph /  4.8km/h 66% 0in /  0.0mm 111 W/m2
19:38 64.4 °F /  18 °C 52.9 °F /  11.6 °C 29.6in /  1001.0hPa WNW 0.9mph /  1.4km/h 3mph /  4.8km/h 66% 0in /  0.0mm 86 W/m2
19:43 64.2 °F /  17.9 °C 52.7 °F /  11.5 °C 29.6in /  1001.4hPa West 2mph /  3.2km/h 3mph /  4.8km/h 66% 0in /  0.0mm 25 W/m2
19:48 64 °F /  17.8 °C 52.9 °F /  11.6 °C 29.6in /  1001.4hPa West 2mph /  3.2km/h 4mph /  6.4km/h 67% 0in /  0.0mm 21 W/m2
19:53 63.7 °F /  17.6 °C 52.9 °F /  11.6 °C 29.6in /  1001.0hPa West 0.9mph /  1.4km/h 3mph /  4.8km/h 68% 0in /  0.0mm 18 W/m2
19:58 63.3 °F /  17.4 °C 53.1 °F /  11.7 °C 29.6in /  1001.4hPa NW 2mph /  3.2km/h 2mph /  3.2km/h 69% 0in /  0.0mm 18 W/m2
20:03 63 °F /  17.2 °C 53.1 °F /  11.7 °C 29.6in /  1001.4hPa WNW 0.9mph /  1.4km/h 2mph /  3.2km/h 70% 0in /  0.0mm 16 W/m2
20:08 62.6 °F /  17 °C 53.1 °F /  11.7 °C 29.6in /  1001.4hPa Calm   1mph /  1.6km/h 71% 0in /  0.0mm 12 W/m2
20:13 62.4 °F /  16.9 °C 53.2 °F /  11.8 °C 29.6in /  1001.4hPa Calm   4mph /  6.4km/h 72% 0in /  0.0mm 7 W/m2
20:18 62.2 °F /  16.8 °C 53.1 °F /  11.7 °C 29.6in /  1001.4hPa Calm     72% 0in /  0.0mm 5 W/m2
20:23 61.9 °F /  16.6 °C 53.1 °F /  11.7 °C 29.6in /  1001.7hPa West 0.9mph /  1.4km/h 1mph /  1.6km/h 73% 0in /  0.0mm 0 W/m2
20:28 61.7 °F /  16.5 °C 53.2 °F /  11.8 °C 29.6in /  1001.4hPa NNW 2.9mph /  4.7km/h 4mph /  6.4km/h 74% 0in /  0.0mm 0 W/m2
20:34 61.5 °F /  16.4 °C 53.6 °F /  12 °C 29.6in /  1001.7hPa Calm   1mph /  1.6km/h 75% 0in /  0.0mm 0 W/m2
20:39 61.5 °F /  16.4 °C 53.6 °F /  12 °C 29.6in /  1001.7hPa WNW 2mph /  3.2km/h 5mph /  8km/h 75% 0in /  0.0mm 0 W/m2
20:44 61.9 °F /  16.6 °C 53.8 °F /  12.1 °C 29.6in /  1002.0hPa West 4mph /  6.4km/h 8mph /  12.9km/h 75% 0in /  0.0mm 0 W/m2
20:49 62.1 °F /  16.7 °C 54.3 °F /  12.4 °C 29.6in /  1002.0hPa NNE 2mph /  3.2km/h 4mph /  6.4km/h 76% 0in /  0.0mm 0 W/m2
20:54 62.1 °F /  16.7 °C 54.7 °F /  12.6 °C 29.6in /  1002.0hPa West 2.9mph /  4.7km/h 8mph /  12.9km/h 77% 0in /  0.0mm 0 W/m2
20:59 61.3 °F /  16.3 °C 54.5 °F /  12.5 °C 29.6in /  1002.0hPa West 2.9mph /  4.7km/h 4mph /  6.4km/h 78% 0in /  0.0mm 0 W/m2
21:04 61 °F /  16.1 °C 54.5 °F /  12.5 °C 29.6in /  1001.7hPa West 2mph /  3.2km/h 7mph /  11.3km/h 79% 0in /  0.0mm 0 W/m2
21:10 60.6 °F /  15.9 °C 54.1 °F /  12.3 °C 29.6in /  1002.0hPa WSW 2mph /  3.2km/h 4mph /  6.4km/h 79% 0in /  0.0mm 0 W/m2
21:15 60.4 °F /  15.8 °C 54 °F /  12.2 °C 29.6in /  1002.0hPa West 2mph /  3.2km/h 5mph /  8km/h 79% 0in /  0.0mm 0 W/m2
21:20 60.3 °F /  15.7 °C 54.1 °F /  12.3 °C 29.6in /  1002.0hPa West 0.9mph /  1.4km/h 2mph /  3.2km/h 80% 0in /  0.0mm 0 W/m2
21:25 60.3 °F /  15.7 °C 54.3 °F /  12.4 °C 29.6in /  1002.0hPa Calm   3mph /  4.8km/h 81% 0in /  0.0mm 0 W/m2
21:30 60.1 °F /  15.6 °C 54.5 °F /  12.5 °C 29.6in /  1002.0hPa West 0.9mph /  1.4km/h 1mph /  1.6km/h 82% 0in /  0.0mm 0 W/m2
21:35 59.7 °F /  15.4 °C 54.5 °F /  12.5 °C 29.6in /  1002.0hPa Calm     83% 0in /  0.0mm 0 W/m2
21:40 59.7 °F /  15.4 °C 54.5 °F /  12.5 °C 29.6in /  1002.0hPa Calm     83% 0in /  0.0mm 0 W/m2
21:45 59.5 °F /  15.3 °C 54.3 °F /  12.4 °C 29.6in /  1002.4hPa West 0.9mph /  1.4km/h 2mph /  3.2km/h 83% 0.02in /  0.5mm 0 W/m2
21:50 59.5 °F /  15.3 °C 55 °F /  12.8 °C 29.6in /  1002.0hPa West 0.9mph /  1.4km/h 1mph /  1.6km/h 85% 0.05in /  1.3mm 0 W/m2
21:55 59.2 °F /  15.1 °C 54.7 °F /  12.6 °C 29.6in /  1002.0hPa Calm   2mph /  3.2km/h 85% 0.07in /  1.8mm 0 W/m2
22:00 58.6 °F /  14.8 °C 54.5 °F /  12.5 °C 29.6in /  1002.0hPa SSE 0.9mph /  1.4km/h 1mph /  1.6km/h 86% 0.09in /  2.3mm 0 W/m2
22:05 58.5 °F /  14.7 °C 54.9 °F /  12.7 °C 29.6in /  1002.0hPa West 0.9mph /  1.4km/h 3mph /  4.8km/h 88% 0.12in /  3.0mm 0 W/m2
22:10 58.3 °F /  14.6 °C 55 °F /  12.8 °C 29.6in /  1002.4hPa WSW 2mph /  3.2km/h 3mph /  4.8km/h 89% 0.13in /  3.3mm 0 W/m2
22:15 57.9 °F /  14.4 °C 54.7 °F /  12.6 °C 29.6in /  1002.7hPa SW 0.9mph /  1.4km/h 2mph /  3.2km/h 89% 0.16in /  4.1mm 0 W/m2
22:20 57.9 °F /  14.4 °C 54.7 °F /  12.6 °C 29.6in /  1002.4hPa SSW 2mph /  3.2km/h 4mph /  6.4km/h 89% 0.18in /  4.6mm 0 W/m2
22:25 58.1 °F /  14.5 °C 54.9 °F /  12.7 °C 29.6in /  1002.4hPa ENE 0.9mph /  1.4km/h 4mph /  6.4km/h 89% 0.18in /  4.6mm 0 W/m2
22:30 58.1 °F /  14.5 °C 54.9 °F /  12.7 °C 29.6in /  1002.4hPa West 0.9mph /  1.4km/h 2mph /  3.2km/h 89% 0.19in /  4.8mm 0 W/m2
22:35 57.9 °F /  14.4 °C 54.7 °F /  12.6 °C 29.6in /  1002.4hPa WSW 0.9mph /  1.4km/h 4mph /  6.4km/h 89% 0.2in /  5.1mm 0 W/m2
22:40 57.7 °F /  14.3 °C 54.5 °F /  12.5 °C 29.6in /  1002.0hPa South 0.9mph /  1.4km/h 1mph /  1.6km/h 89% 0.2in /  5.1mm 0 W/m2
22:45 57.6 °F /  14.2 °C 54.3 °F /  12.4 °C 29.6in /  1002.4hPa West 4mph /  6.4km/h 4mph /  6.4km/h 89% 0.18in /  4.6mm 0 W/m2
22:50 57.4 °F /  14.1 °C 54.5 °F /  12.5 °C 29.6in /  1002.4hPa Calm   1mph /  1.6km/h 90% 0.15in /  3.8mm 0 W/m2
22:55 57 °F /  13.9 °C 54.1 °F /  12.3 °C 29.6in /  1002.4hPa Calm   1mph /  1.6km/h 90% 0.13in /  3.3mm 0 W/m2
23:00 56.8 °F /  13.8 °C 54 °F /  12.2 °C 29.6in /  1002.4hPa Calm   1mph /  1.6km/h 90% 0.11in /  2.8mm 0 W/m2
23:05 56.8 °F /  13.8 °C 54.3 °F /  12.4 °C 29.6in /  1002.4hPa West 2.9mph /  4.7km/h 4mph /  6.4km/h 91% 0.08in /  2.0mm 0 W/m2
23:10 56.8 °F /  13.8 °C 54.3 °F /  12.4 °C 29.6in /  1002.7hPa West 0.9mph /  1.4km/h 3mph /  4.8km/h 91% 0.06in /  1.5mm 0 W/m2
23:15 56.8 °F /  13.8 °C 54.3 °F /  12.4 °C 29.6in /  1002.4hPa Calm   2mph /  3.2km/h 91% 0.03in /  0.8mm 0 W/m2
23:20 56.7 °F /  13.7 °C 54.1 °F /  12.3 °C 29.6in /  1002.4hPa Calm   1mph /  1.6km/h 91% 0.02in /  0.5mm 0 W/m2
23:25 56.5 °F /  13.6 °C 54 °F /  12.2 °C 29.6in /  1002.4hPa Calm     91% 0.01in /  0.2mm 0 W/m2
23:30 56.1 °F /  13.4 °C 53.8 °F /  12.1 °C 29.6in /  1002.4hPa Calm     92% 0.01in /  0.2mm 0 W/m2
23:35 55.9 °F /  13.3 °C 53.4 °F /  11.9 °C 29.6in /  1002.4hPa Calm     91% 0in /  0.0mm 0 W/m2
23:40 55.6 °F /  13.1 °C 53.2 °F /  11.8 °C 29.6in /  1002.4hPa Calm     92% 0in /  0.0mm 0 W/m2
23:45 55.4 °F /  13 °C 53.1 °F /  11.7 °C 29.6in /  1002.4hPa Calm     92% 0in /  0.0mm 0 W/m2
23:50 55.2 °F /  12.9 °C 53.2 °F /  11.8 °C 29.6in /  1002.7hPa Calm     93% 0in /  0.0mm 0 W/m2
23:56 55 °F /  12.8 °C 53.1 °F /  11.7 °C 29.6in /  1002.4hPa Calm   1mph /  1.6km/h 93% 0in /  0.0mm 0 W/m2
Juneau County Weather
Compliments of Weather Underground - 4 mb